Time;durP1;ratioP1;P1;durP2;ratioP2;P2;SDS_P1;SDS_P2;PMS_P1;PMS_P2;Temp;Humidity;BMP_temperature;BMP_pressure;BME280_temperature;BME280_humidity;BME280_pressure;Samples;Min_cycle;Max_cycle;Signal;HPM_P1;HPM_P2
2023/06/22 00:01:42;;;;;;;14.80;6.37;;;;;;;;;;782462;176;918435;-60
2023/06/22 00:04:08;;;;;;;16.30;6.07;;;;;;;;;;785422;177;919575;-60
2023/06/22 00:06:34;;;;;;;13.70;6.03;;;;;;;;;;787706;177;918849;-60
2023/06/22 00:09:00;;;;;;;12.00;5.20;;;;;;;;;;786570;177;918681;-60
2023/06/22 00:11:26;;;;;;;18.50;7.07;;;;;;;;;;786151;177;929286;-60
2023/06/22 00:13:51;;;;;;;13.83;7.10;;;;;;;;;;788388;177;820693;-67
2023/06/22 00:16:17;;;;;;;19.77;6.40;;;;;;;;;;787349;177;921218;-67
2023/06/22 00:18:46;;;;;;;33.20;6.15;;;;;;;;;;786829;177;916266;-68
2023/06/22 00:21:09;;;;;;;31.00;6.27;;;;;;;;;;789340;177;916699;-68
2023/06/22 00:23:35;;;;;;;17.13;4.90;;;;;;;;;;784182;176;913809;-67
2023/06/22 00:26:01;;;;;;;25.87;6.57;;;;;;;;;;782962;177;919327;-68
2023/06/22 00:28:26;;;;;;;16.80;5.87;;;;;;;;;;787024;176;919982;-67
2023/06/22 00:30:52;;;;;;;14.90;6.20;;;;;;;;;;792728;177;918081;-68
2023/06/22 00:33:18;;;;;;;26.00;6.20;;;;;;;;;;781968;176;918532;-69
2023/06/22 00:35:44;;;;;;;34.03;6.57;;;;;;;;;;786198;177;918346;-60
2023/06/22 00:38:10;;;;;;;17.63;5.67;;;;;;;;;;790705;177;919067;-67
2023/06/22 00:40:36;;;;;;;17.70;4.90;;;;;;;;;;778910;177;918385;-60
2023/06/22 00:43:01;;;;;;;26.30;6.37;;;;;;;;;;778994;178;885804;-68
2023/06/22 00:45:27;;;;;;;14.35;5.70;;;;;;;;;;789383;175;915901;-60
2023/06/22 00:47:53;;;;;;;18.50;6.60;;;;;;;;;;782190;176;918522;-67
2023/06/22 00:50:20;;;;;;;31.33;6.40;;;;;;;;;;782700;177;920200;-67
2023/06/22 00:52:46;;;;;;;26.00;6.47;;;;;;;;;;781761;177;916586;-60
2023/06/22 00:55:11;;;;;;;18.87;5.80;;;;;;;;;;790275;175;919732;-67
2023/06/22 00:57:37;;;;;;;20.30;6.53;;;;;;;;;;787248;174;919920;-59
2023/06/22 01:00:07;;;;;;;28.17;7.23;;;;;;;;;;783977;176;919427;-66
2023/06/22 01:02:32;;;;;;;27.30;6.70;;;;;;;;;;793860;176;920070;-66
2023/06/22 01:04:58;;;;;;;30.77;6.60;;;;;;;;;;784647;176;922078;-59
2023/06/22 01:07:25;;;;;;;30.57;7.17;;;;;;;;;;789771;176;915903;-66
2023/06/22 01:09:55;;;;;;;35.63;7.00;;;;;;;;;;786781;176;920079;-59
2023/06/22 01:12:21;;;;;;;23.03;7.03;;;;;;;;;;774002;178;922751;-59
2023/06/22 01:14:48;;;;;;;22.27;7.40;;;;;;;;;;778793;176;919943;-66
2023/06/22 01:17:16;;;;;;;27.33;6.80;;;;;;;;;;789682;176;719213;-59
2023/06/22 01:19:41;;;;;;;24.37;6.50;;;;;;;;;;793010;176;816772;-67
2023/06/22 01:22:05;;;;;;;26.07;6.70;;;;;;;;;;788028;177;814577;-67
2023/06/22 01:24:35;;;;;;;23.50;6.40;;;;;;;;;;788207;176;921455;-59
2023/06/22 01:27:05;;;;;;;119.10;10.33;;;;;;;;;;786204;177;919110;-66
2023/06/22 01:29:31;;;;;;;32.93;7.57;;;;;;;;;;787078;177;918871;-59
2023/06/22 01:31:57;;;;;;;17.60;5.47;;;;;;;;;;784060;178;816168;-66
2023/06/22 01:34:23;;;;;;;35.60;6.80;;;;;;;;;;785055;177;817066;-66
2023/06/22 01:36:48;;;;;;;27.93;8.93;;;;;;;;;;793127;177;911422;-59
2023/06/22 01:39:14;;;;;;;24.03;7.00;;;;;;;;;;787126;177;816561;-60
2023/06/22 01:41:41;;;;;;;29.20;8.13;;;;;;;;;;784299;177;918001;-59
2023/06/22 01:44:07;;;;;;;29.00;6.63;;;;;;;;;;786030;177;916107;-59
2023/06/22 01:46:32;;;;;;;23.23;6.83;;;;;;;;;;788734;177;919442;-67
2023/06/22 01:48:58;;;;;;;19.43;7.47;;;;;;;;;;786253;177;918762;-66
2023/06/22 01:51:23;;;;;;;28.40;7.20;;;;;;;;;;785328;177;919932;-65
2023/06/22 01:53:49;;;;;;;19.23;6.90;;;;;;;;;;784961;177;919155;-59
2023/06/22 01:56:16;;;;;;;15.83;6.50;;;;;;;;;;786916;177;918761;-59
2023/06/22 01:58:42;;;;;;;170.13;12.90;;;;;;;;;;786597;177;864175;-59
2023/06/22 02:01:09;;;;;;;16.73;5.80;;;;;;;;;;786585;177;920820;-67
2023/06/22 02:03:36;;;;;;;23.13;7.30;;;;;;;;;;783113;178;935329;-67
2023/06/22 02:06:02;;;;;;;25.13;6.93;;;;;;;;;;784298;177;919609;-59
2023/06/22 02:08:28;;;;;;;33.50;7.70;;;;;;;;;;788741;176;1023043;-59
2023/06/22 02:10:54;;;;;;;20.83;7.90;;;;;;;;;;792524;176;940138;-59
2023/06/22 02:13:19;;;;;;;27.50;8.97;;;;;;;;;;786100;176;919587;-67
2023/06/22 02:15:45;;;;;;;37.30;10.07;;;;;;;;;;784756;178;920326;-59
2023/06/22 02:18:11;;;;;;;24.60;9.20;;;;;;;;;;789612;177;942248;-66
2023/06/22 02:20:37;;;;;;;43.03;8.47;;;;;;;;;;788811;177;922733;-66
2023/06/22 02:23:03;;;;;;;133.10;10.80;;;;;;;;;;785528;177;921079;-59
2023/06/22 02:25:29;;;;;;;96.60;9.97;;;;;;;;;;789210;177;921518;-65
2023/06/22 02:27:54;;;;;;;25.07;7.67;;;;;;;;;;788986;177;842988;-66
2023/06/22 02:30:20;;;;;;;18.07;6.60;;;;;;;;;;789014;177;916071;-66
2023/06/22 02:32:46;;;;;;;13.37;7.00;;;;;;;;;;785698;176;922055;-65
2023/06/22 02:35:12;;;;;;;27.13;6.60;;;;;;;;;;785353;178;852917;-66
2023/06/22 02:37:41;;;;;;;26.10;8.10;;;;;;;;;;784491;177;917026;-65
2023/06/22 02:40:06;;;;;;;31.00;7.25;;;;;;;;;;787403;177;918854;-66
2023/06/22 02:42:31;;;;;;;37.83;8.00;;;;;;;;;;793178;177;919188;-66
2023/06/22 02:44:57;;;;;;;21.77;6.27;;;;;;;;;;786904;177;917659;-65
2023/06/22 02:47:23;;;;;;;17.50;6.60;;;;;;;;;;783317;177;919324;-65
2023/06/22 02:49:49;;;;;;;21.73;6.67;;;;;;;;;;788700;177;919673;-65
2023/06/22 02:52:15;;;;;;;24.43;6.37;;;;;;;;;;781556;177;916522;-65
2023/06/22 02:54:40;;;;;;;29.33;7.60;;;;;;;;;;782814;177;918931;-58
2023/06/22 02:57:06;;;;;;;14.33;5.83;;;;;;;;;;777388;177;917191;-65
2023/06/22 02:59:32;;;;;;;18.37;7.10;;;;;;;;;;786926;177;928880;-66
2023/06/22 03:01:58;;;;;;;17.13;5.30;;;;;;;;;;785910;176;893528;-66
2023/06/22 03:04:24;;;;;;;9.80;4.93;;;;;;;;;;783385;177;915011;-65
2023/06/22 03:06:50;;;;;;;32.57;5.97;;;;;;;;;;789827;177;919873;-66
2023/06/22 03:09:15;;;;;;;16.43;5.40;;;;;;;;;;785610;177;919015;-65
2023/06/22 03:11:41;;;;;;;15.43;5.40;;;;;;;;;;785256;177;916174;-65
2023/06/22 03:14:07;;;;;;;18.20;5.30;;;;;;;;;;784663;177;918823;-65
2023/06/22 03:16:33;;;;;;;11.47;5.93;;;;;;;;;;788733;176;917280;-59
2023/06/22 03:18:59;;;;;;;18.97;5.70;;;;;;;;;;787250;176;974613;-58
2023/06/22 03:21:25;;;;;;;16.00;5.37;;;;;;;;;;789875;176;856436;-67
2023/06/22 03:23:50;;;;;;;9.30;5.27;;;;;;;;;;787342;177;921302;-65
2023/06/22 03:26:16;;;;;;;14.13;7.10;;;;;;;;;;786035;175;920621;-58
2023/06/22 03:28:42;;;;;;;16.53;6.20;;;;;;;;;;784712;177;919275;-64
2023/06/22 03:31:08;;;;;;;19.57;6.67;;;;;;;;;;792217;177;919776;-65
2023/06/22 03:33:34;;;;;;;12.00;5.90;;;;;;;;;;787156;176;919568;-65
2023/06/22 03:36:00;;;;;;;16.03;5.20;;;;;;;;;;785717;176;919553;-66
2023/06/22 03:38:25;;;;;;;17.70;6.18;;;;;;;;;;792858;176;818595;-65
2023/06/22 03:40:51;;;;;;;17.53;6.13;;;;;;;;;;783327;177;918971;-59
2023/06/22 03:43:17;;;;;;;22.30;5.57;;;;;;;;;;788801;177;915577;-59
2023/06/22 03:45:45;;;;;;;20.53;7.73;;;;;;;;;;788291;177;918228;-59
2023/06/22 03:48:09;;;;;;;22.83;6.87;;;;;;;;;;782055;177;930766;-66
2023/06/22 03:50:35;;;;;;;22.90;8.00;;;;;;;;;;782231;177;919642;-66
2023/06/22 03:53:01;;;;;;;28.57;7.80;;;;;;;;;;785376;177;921823;-65
2023/06/22 03:55:27;;;;;;;25.83;8.37;;;;;;;;;;776710;179;922090;-66
2023/06/22 03:57:54;;;;;;;32.00;7.50;;;;;;;;;;785835;175;1021397;-66
2023/06/22 04:00:18;;;;;;;30.40;7.27;;;;;;;;;;784196;176;918205;-66
2023/06/22 04:02:44;;;;;;;17.83;8.23;;;;;;;;;;791921;177;816618;-67
2023/06/22 04:05:10;;;;;;;17.17;8.30;;;;;;;;;;785795;176;918906;-58
2023/06/22 04:07:37;;;;;;;20.03;7.93;;;;;;;;;;786300;176;917495;-58
2023/06/22 04:10:02;;;;;;;17.50;8.30;;;;;;;;;;792503;177;920807;-66
2023/06/22 04:12:28;;;;;;;16.90;7.77;;;;;;;;;;784971;176;920664;-68
2023/06/22 04:14:54;;;;;;;13.30;8.37;;;;;;;;;;784960;176;918023;-66
2023/06/22 04:17:20;;;;;;;24.80;9.00;;;;;;;;;;787639;177;919213;-59
2023/06/22 04:19:46;;;;;;;15.63;7.73;;;;;;;;;;780094;177;918988;-58
2023/06/22 04:22:12;;;;;;;19.63;10.33;;;;;;;;;;783684;177;891102;-66
2023/06/22 04:24:38;;;;;;;19.70;8.97;;;;;;;;;;780953;177;919812;-58
2023/06/22 04:27:04;;;;;;;18.80;8.00;;;;;;;;;;789856;177;918420;-67
2023/06/22 04:29:30;;;;;;;17.70;9.97;;;;;;;;;;784239;176;886104;-67
2023/06/22 04:31:58;;;;;;;23.90;8.50;;;;;;;;;;786176;176;918305;-67
2023/06/22 04:34:23;;;;;;;18.07;7.43;;;;;;;;;;794747;176;921315;-58
2023/06/22 04:36:48;;;;;;;20.70;7.90;;;;;;;;;;788277;176;893814;-69
2023/06/22 04:39:14;;;;;;;13.57;7.30;;;;;;;;;;786198;177;929757;-68
2023/06/22 04:41:41;;;;;;;18.70;8.73;;;;;;;;;;790369;176;880531;-58
2023/06/22 04:44:08;;;;;;;12.97;7.20;;;;;;;;;;793377;176;726049;-59
2023/06/22 04:46:37;;;;;;;10.53;6.27;;;;;;;;;;786315;177;918287;-59
2023/06/22 04:49:00;;;;;;;25.52;9.07;;;;;;;;;;783921;176;916303;-58
2023/06/22 04:51:30;;;;;;;13.53;7.03;;;;;;;;;;789527;177;628712;-59
2023/06/22 04:53:51;;;;;;;14.77;6.53;;;;;;;;;;781274;177;813015;-59
2023/06/22 04:56:18;;;;;;;18.92;6.45;;;;;;;;;;789516;175;914257;-59
2023/06/22 04:58:43;;;;;;;22.33;7.40;;;;;;;;;;791623;177;919481;-59
2023/06/22 05:01:10;;;;;;;13.47;6.37;;;;;;;;;;788757;177;846253;-68
2023/06/22 05:03:36;;;;;;;9.63;5.60;;;;;;;;;;786136;177;919444;-69
2023/06/22 05:06:01;;;;;;;16.70;7.00;;;;;;;;;;785433;177;916160;-69
2023/06/22 05:08:28;;;;;;;11.43;6.40;;;;;;;;;;783937;177;864035;-70
2023/06/22 05:10:52;;;;;;;12.60;6.13;;;;;;;;;;777870;177;918672;-59
2023/06/22 05:13:18;;;;;;;11.90;5.78;;;;;;;;;;785708;177;921989;-69
2023/06/22 05:15:47;;;;;;;9.77;5.77;;;;;;;;;;791381;177;825038;-73
2023/06/22 05:18:11;;;;;;;9.40;5.73;;;;;;;;;;781039;177;918581;-59
2023/06/22 05:20:36;;;;;;;12.87;5.27;;;;;;;;;;785713;177;816645;-71
2023/06/22 05:23:02;;;;;;;10.43;4.97;;;;;;;;;;790017;177;1124141;-71
2023/06/22 05:25:29;;;;;;;10.20;6.10;;;;;;;;;;783359;176;918732;-60
2023/06/22 05:27:53;;;;;;;10.80;5.55;;;;;;;;;;785062;177;921755;-72
2023/06/22 05:30:20;;;;;;;14.80;6.05;;;;;;;;;;787606;177;921127;-69
2023/06/22 05:32:46;;;;;;;17.93;5.57;;;;;;;;;;779273;178;818500;-72
2023/06/22 05:35:11;;;;;;;8.97;5.50;;;;;;;;;;785851;177;942833;-73
2023/06/22 05:37:37;;;;;;;8.83;5.50;;;;;;;;;;785503;177;918693;-59
2023/06/22 05:40:04;;;;;;;11.80;5.93;;;;;;;;;;791036;177;939028;-74
2023/06/22 05:42:29;;;;;;;23.30;5.10;;;;;;;;;;783161;176;956258;-59
2023/06/22 05:44:55;;;;;;;10.80;6.10;;;;;;;;;;790296;176;816456;-59
2023/06/22 05:47:22;;;;;;;15.73;5.77;;;;;;;;;;792098;176;917982;-59
2023/06/22 05:49:47;;;;;;;12.13;5.20;;;;;;;;;;788002;176;917598;-74
2023/06/22 05:52:13;;;;;;;17.10;6.40;;;;;;;;;;786076;176;921578;-73
2023/06/22 05:54:39;;;;;;;13.13;5.67;;;;;;;;;;788655;176;919569;-59
2023/06/22 05:57:05;;;;;;;13.50;5.53;;;;;;;;;;789769;176;878399;-73
2023/06/22 05:59:30;;;;;;;12.60;6.10;;;;;;;;;;787472;176;939177;-59
2023/06/22 06:01:56;;;;;;;11.07;6.23;;;;;;;;;;788951;177;853338;-73
2023/06/22 06:04:22;;;;;;;9.97;5.47;;;;;;;;;;792471;176;934770;-59
2023/06/22 06:06:48;;;;;;;10.10;5.43;;;;;;;;;;783779;177;916140;-59
2023/06/22 06:09:14;;;;;;;10.50;5.70;;;;;;;;;;782481;177;917264;-73
2023/06/22 06:11:40;;;;;;;16.30;6.47;;;;;;;;;;789022;177;919526;-73
2023/06/22 06:14:06;;;;;;;10.30;5.87;;;;;;;;;;789319;177;920880;-72
2023/06/22 06:16:32;;;;;;;18.63;5.80;;;;;;;;;;785239;177;905117;-59
2023/06/22 06:18:58;;;;;;;14.67;5.70;;;;;;;;;;787159;177;912692;-73
2023/06/22 06:21:23;;;;;;;13.03;5.93;;;;;;;;;;788114;177;918493;-73
2023/06/22 06:23:49;;;;;;;10.90;7.30;;;;;;;;;;787092;177;917008;-73
2023/06/22 06:26:16;;;;;;;17.63;6.93;;;;;;;;;;784589;177;919310;-72
2023/06/22 06:28:41;;;;;;;14.00;8.27;;;;;;;;;;780124;178;872098;-60
2023/06/22 06:31:08;;;;;;;18.07;7.83;;;;;;;;;;785154;177;886492;-74
2023/06/22 06:33:32;;;;;;;11.27;6.77;;;;;;;;;;786192;177;919492;-75
2023/06/22 06:36:01;;;;;;;10.33;7.70;;;;;;;;;;790922;177;922490;-60
2023/06/22 06:38:24;;;;;;;13.07;10.00;;;;;;;;;;784798;177;918953;-60
2023/06/22 06:40:50;;;;;;;20.00;9.07;;;;;;;;;;785627;177;918644;-60
2023/06/22 06:43:16;;;;;;;14.70;10.83;;;;;;;;;;790787;177;816766;-75
2023/06/22 06:45:42;;;;;;;19.73;10.20;;;;;;;;;;788427;177;626015;-74
2023/06/22 06:48:09;;;;;;;17.73;10.60;;;;;;;;;;788463;177;918906;-60
2023/06/22 06:50:34;;;;;;;14.60;10.48;;;;;;;;;;787968;177;837949;-72
2023/06/22 06:53:00;;;;;;;14.13;11.73;;;;;;;;;;789231;176;852443;-60
2023/06/22 06:55:26;;;;;;;11.50;10.30;;;;;;;;;;781336;177;918278;-74
2023/06/22 06:57:52;;;;;;;18.77;11.70;;;;;;;;;;787537;177;818360;-73
2023/06/22 07:00:18;;;;;;;22.37;11.13;;;;;;;;;;795019;177;619147;-74
2023/06/22 07:02:44;;;;;;;17.03;13.60;;;;;;;;;;786653;177;919720;-60
2023/06/22 07:05:10;;;;;;;16.07;11.50;;;;;;;;;;786706;175;919403;-60
2023/06/22 07:07:35;;;;;;;17.33;13.00;;;;;;;;;;790123;177;919876;-60
2023/06/22 07:10:01;;;;;;;14.90;13.20;;;;;;;;;;788819;176;919831;-60
2023/06/22 07:12:27;;;;;;;16.48;12.98;;;;;;;;;;787023;177;902240;-60
2023/06/22 07:14:53;;;;;;;22.47;12.73;;;;;;;;;;787406;177;908415;-59
2023/06/22 07:17:19;;;;;;;18.33;12.67;;;;;;;;;;785952;177;911114;-60
2023/06/22 07:19:45;;;;;;;16.43;11.90;;;;;;;;;;784017;177;913439;-60
2023/06/22 07:22:11;;;;;;;13.80;11.90;;;;;;;;;;787414;177;920023;-72
2023/06/22 07:24:37;;;;;;;19.63;13.00;;;;;;;;;;793410;177;855861;-71
2023/06/22 07:27:03;;;;;;;22.23;14.47;;;;;;;;;;787732;177;918315;-61
2023/06/22 07:29:28;;;;;;;15.50;12.33;;;;;;;;;;784233;177;919527;-60
2023/06/22 07:31:56;;;;;;;16.70;12.90;;;;;;;;;;791408;177;918505;-60
2023/06/22 07:34:20;;;;;;;22.57;12.53;;;;;;;;;;786039;177;820511;-60
2023/06/22 07:36:46;;;;;;;19.30;14.03;;;;;;;;;;787085;177;919859;-63
2023/06/22 07:39:12;;;;;;;24.10;15.07;;;;;;;;;;788314;176;952425;-62
2023/06/22 07:41:38;;;;;;;24.03;15.80;;;;;;;;;;779736;175;919139;-72
2023/06/22 07:44:03;;;;;;;20.50;16.27;;;;;;;;;;786244;176;915810;-61
2023/06/22 07:46:30;;;;;;;21.57;18.73;;;;;;;;;;787124;177;914927;-72
2023/06/22 07:48:56;;;;;;;23.90;16.80;;;;;;;;;;785398;178;917804;-61
2023/06/22 07:51:22;;;;;;;30.90;21.60;;;;;;;;;;785635;177;862700;-60
2023/06/22 07:53:48;;;;;;;23.40;19.70;;;;;;;;;;782678;177;916282;-71
2023/06/22 07:56:13;;;;;;;22.23;19.27;;;;;;;;;;790153;177;881739;-72
2023/06/22 07:58:39;;;;;;;22.33;19.57;;;;;;;;;;785482;176;919678;-60
2023/06/22 08:01:06;;;;;;;22.97;20.43;;;;;;;;;;786626;177;924403;-60
2023/06/22 08:03:31;;;;;;;21.60;18.90;;;;;;;;;;790327;177;860441;-73
2023/06/22 08:05:57;;;;;;;23.80;20.57;;;;;;;;;;787525;176;918823;-60
2023/06/22 08:08:23;;;;;;;27.97;21.63;;;;;;;;;;788784;176;846261;-61
2023/06/22 08:10:49;;;;;;;23.40;20.43;;;;;;;;;;788254;176;872439;-72
2023/06/22 08:13:15;;;;;;;25.23;21.20;;;;;;;;;;787824;177;879603;-59
2023/06/22 08:15:40;;;;;;;24.10;20.60;;;;;;;;;;781104;175;919059;-73
2023/06/22 08:18:06;;;;;;;23.43;20.93;;;;;;;;;;787413;177;918049;-61
2023/06/22 08:20:32;;;;;;;20.13;18.03;;;;;;;;;;796184;175;618168;-60
2023/06/22 08:23:05;;;;;;;23.60;21.20;;;;;;;;;;789856;176;651470;-72
2023/06/22 08:25:24;;;;;;;24.43;20.90;;;;;;;;;;789123;177;819189;-72
2023/06/22 08:27:50;;;;;;;20.63;17.67;;;;;;;;;;792557;176;910209;-61
2023/06/22 08:30:16;;;;;;;20.27;17.87;;;;;;;;;;785851;177;1023234;-72
2023/06/22 08:32:41;;;;;;;24.30;21.70;;;;;;;;;;788762;177;816416;-72
2023/06/22 08:35:08;;;;;;;22.50;19.70;;;;;;;;;;789602;177;839593;-60
2023/06/22 08:37:35;;;;;;;20.27;18.07;;;;;;;;;;798162;175;611488;-71
2023/06/22 08:40:01;;;;;;;20.00;17.90;;;;;;;;;;788176;175;619277;-72
2023/06/22 08:42:26;;;;;;;26.30;19.93;;;;;;;;;;788605;177;626701;-73
2023/06/22 08:44:53;;;;;;;21.57;18.43;;;;;;;;;;797299;177;819297;-59
2023/06/22 08:47:19;;;;;;;21.67;18.50;;;;;;;;;;786141;177;918539;-72
2023/06/22 08:49:44;;;;;;;23.70;16.80;;;;;;;;;;784310;175;918405;-60
2023/06/22 08:52:10;;;;;;;23.63;18.13;;;;;;;;;;787983;177;857035;-72
2023/06/22 08:54:36;;;;;;;18.73;16.73;;;;;;;;;;787275;177;919498;-59
2023/06/22 08:57:02;;;;;;;21.07;18.33;;;;;;;;;;784638;177;915368;-70
2023/06/22 08:59:28;;;;;;;21.50;16.10;;;;;;;;;;790585;177;917616;-60
2023/06/22 09:01:53;;;;;;;18.83;16.07;;;;;;;;;;783085;177;819553;-60
2023/06/22 09:04:22;;;;;;;21.27;18.67;;;;;;;;;;784996;177;818736;-72
2023/06/22 09:06:46;;;;;;;19.27;17.10;;;;;;;;;;787104;176;935586;-60
2023/06/22 09:09:11;;;;;;;21.00;18.53;;;;;;;;;;793121;177;816147;-72
2023/06/22 09:11:37;;;;;;;18.87;16.97;;;;;;;;;;782232;176;917824;-60
2023/06/22 09:14:03;;;;;;;18.77;16.87;;;;;;;;;;784135;177;913835;-73
2023/06/22 09:16:28;;;;;;;19.23;17.30;;;;;;;;;;791730;176;995701;-59
2023/06/22 09:18:54;;;;;;;18.97;16.90;;;;;;;;;;785345;176;918541;-72
2023/06/22 09:21:20;;;;;;;20.30;17.50;;;;;;;;;;782541;176;918691;-60
2023/06/22 09:23:50;;;;;;;23.03;16.83;;;;;;;;;;792974;176;765671;-60
2023/06/22 09:26:12;;;;;;;22.33;18.13;;;;;;;;;;778614;176;895046;-74
2023/06/22 09:28:38;;;;;;;18.83;15.83;;;;;;;;;;786191;177;919111;-60
2023/06/22 09:31:04;;;;;;;19.80;17.80;;;;;;;;;;787767;176;920396;-73
2023/06/22 09:33:30;;;;;;;18.20;15.73;;;;;;;;;;788433;176;917380;-60
2023/06/22 09:35:56;;;;;;;18.77;16.80;;;;;;;;;;782045;177;938130;-60
2023/06/22 09:38:21;;;;;;;16.93;14.40;;;;;;;;;;786118;176;921941;-73
2023/06/22 09:40:47;;;;;;;18.03;15.43;;;;;;;;;;791862;177;918565;-59
2023/06/22 09:43:13;;;;;;;16.93;15.13;;;;;;;;;;786432;177;918993;-60
2023/06/22 09:45:39;;;;;;;16.57;13.90;;;;;;;;;;786687;177;905536;-59
2023/06/22 09:48:05;;;;;;;18.50;15.87;;;;;;;;;;784050;178;809953;-72
2023/06/22 09:50:31;;;;;;;18.20;14.20;;;;;;;;;;784670;177;920483;-60
2023/06/22 09:52:57;;;;;;;18.90;15.27;;;;;;;;;;785281;176;920821;-60
2023/06/22 09:55:23;;;;;;;16.23;14.60;;;;;;;;;;791320;177;919001;-70
2023/06/22 09:57:49;;;;;;;14.67;13.13;;;;;;;;;;790543;177;918723;-74
2023/06/22 10:00:15;;;;;;;17.70;13.50;;;;;;;;;;784732;177;919237;-73
2023/06/22 10:02:41;;;;;;;17.10;13.70;;;;;;;;;;783451;175;916465;-73
2023/06/22 10:05:07;;;;;;;16.87;14.10;;;;;;;;;;792176;177;919297;-74
2023/06/22 10:07:33;;;;;;;14.50;13.00;;;;;;;;;;787212;177;928838;-60
2023/06/22 10:09:59;;;;;;;17.20;13.67;;;;;;;;;;786601;177;921706;-74
2023/06/22 10:12:24;;;;;;;15.67;13.07;;;;;;;;;;787388;177;918417;-74
2023/06/22 10:14:51;;;;;;;15.87;14.23;;;;;;;;;;785253;177;919077;-71
2023/06/22 10:17:16;;;;;;;17.20;15.47;;;;;;;;;;787366;176;918832;-74
2023/06/22 10:19:43;;;;;;;18.90;16.70;;;;;;;;;;790600;176;881134;-60
2023/06/22 10:22:09;;;;;;;16.10;14.50;;;;;;;;;;784132;177;814347;-60
2023/06/22 10:24:34;;;;;;;18.13;16.03;;;;;;;;;;783078;176;920803;-60
2023/06/22 10:27:00;;;;;;;17.67;15.77;;;;;;;;;;785485;177;922620;-72
2023/06/22 10:29:26;;;;;;;18.03;16.17;;;;;;;;;;794491;176;815375;-60
2023/06/22 10:31:53;;;;;;;18.57;16.10;;;;;;;;;;790216;175;848229;-60
2023/06/22 10:34:19;;;;;;;19.55;17.00;;;;;;;;;;786112;177;919291;-73
2023/06/22 10:36:48;;;;;;;18.73;16.93;;;;;;;;;;791099;176;918326;-60
2023/06/22 10:39:12;;;;;;;21.27;16.43;;;;;;;;;;784757;176;920145;-60
2023/06/22 10:41:38;;;;;;;17.83;16.10;;;;;;;;;;774337;176;817409;-59
2023/06/22 10:44:04;;;;;;;20.50;16.60;;;;;;;;;;783320;178;918690;-70
2023/06/22 10:46:30;;;;;;;18.43;16.63;;;;;;;;;;788459;177;901520;-72
2023/06/22 10:48:58;;;;;;;17.73;15.90;;;;;;;;;;785745;175;891566;-61
2023/06/22 10:51:22;;;;;;;19.50;17.30;;;;;;;;;;783832;177;958817;-61
2023/06/22 10:53:48;;;;;;;18.70;16.17;;;;;;;;;;789980;177;919042;-74
2023/06/22 10:56:14;;;;;;;18.30;16.50;;;;;;;;;;788711;176;819204;-73
2023/06/22 10:58:40;;;;;;;16.93;15.33;;;;;;;;;;785829;176;848699;-60
2023/06/22 11:01:06;;;;;;;18.07;16.23;;;;;;;;;;791422;177;921606;-60
2023/06/22 11:03:31;;;;;;;17.73;15.77;;;;;;;;;;783329;176;927060;-72
2023/06/22 11:05:57;;;;;;;17.23;15.67;;;;;;;;;;784933;176;920137;-74
2023/06/22 11:08:23;;;;;;;17.87;15.97;;;;;;;;;;789204;177;918766;-74
2023/06/22 11:10:49;;;;;;;15.07;12.80;;;;;;;;;;784428;177;918821;-60
2023/06/22 11:13:15;;;;;;;17.67;15.60;;;;;;;;;;784366;177;917623;-60
2023/06/22 11:15:41;;;;;;;17.10;15.30;;;;;;;;;;784461;177;918252;-75
2023/06/22 11:18:07;;;;;;;17.00;15.50;;;;;;;;;;790438;177;879682;-60
2023/06/22 11:20:34;;;;;;;16.73;14.97;;;;;;;;;;788111;177;815746;-60
2023/06/22 11:22:58;;;;;;;16.20;14.47;;;;;;;;;;781202;177;919331;-73
2023/06/22 11:25:24;;;;;;;17.43;15.70;;;;;;;;;;789308;177;930355;-61
2023/06/22 11:27:51;;;;;;;18.20;13.80;;;;;;;;;;782418;177;915165;-60
2023/06/22 11:30:16;;;;;;;20.73;14.17;;;;;;;;;;782960;176;917116;-73
2023/06/22 11:32:42;;;;;;;18.00;13.93;;;;;;;;;;792248;177;619115;-60
2023/06/22 11:35:08;;;;;;;17.53;14.20;;;;;;;;;;784527;177;919058;-60
2023/06/22 11:37:34;;;;;;;17.27;15.33;;;;;;;;;;784307;177;917773;-72
2023/06/22 11:39:59;;;;;;;17.00;14.07;;;;;;;;;;785681;176;920718;-73
2023/06/22 11:42:25;;;;;;;16.20;14.43;;;;;;;;;;785329;176;919519;-61
2023/06/22 11:44:51;;;;;;;15.83;14.03;;;;;;;;;;784842;176;865828;-60
2023/06/22 11:47:17;;;;;;;16.60;14.80;;;;;;;;;;785394;176;938972;-71
2023/06/22 11:49:43;;;;;;;15.60;14.10;;;;;;;;;;791563;175;919509;-74
2023/06/22 11:52:09;;;;;;;17.73;15.93;;;;;;;;;;788896;176;919202;-60
2023/06/22 11:54:35;;;;;;;15.27;13.57;;;;;;;;;;783824;176;920194;-74
2023/06/22 11:57:00;;;;;;;25.73;14.97;;;;;;;;;;792250;176;919491;-60
2023/06/22 11:59:26;;;;;;;16.20;14.60;;;;;;;;;;788067;177;922026;-60
2023/06/22 12:01:52;;;;;;;16.47;14.97;;;;;;;;;;786606;177;816653;-60
2023/06/22 12:04:18;;;;;;;17.87;15.90;;;;;;;;;;788271;176;817194;-61
2023/06/22 12:06:44;;;;;;;16.83;15.13;;;;;;;;;;787952;179;816503;-61
2023/06/22 12:09:10;;;;;;;17.67;15.87;;;;;;;;;;774741;179;919237;-71
2023/06/22 12:11:36;;;;;;;17.48;15.73;;;;;;;;;;785820;176;919641;-71
2023/06/22 12:14:02;;;;;;;16.40;14.70;;;;;;;;;;790394;177;918564;-74
2023/06/22 12:16:27;;;;;;;16.70;15.10;;;;;;;;;;784792;177;920337;-73
2023/06/22 12:18:53;;;;;;;19.13;15.20;;;;;;;;;;786690;177;908414;-72
2023/06/22 12:21:19;;;;;;;17.57;15.77;;;;;;;;;;791574;177;818433;-74
2023/06/22 12:23:45;;;;;;;17.30;15.60;;;;;;;;;;787346;177;920362;-60
2023/06/22 12:26:11;;;;;;;17.50;15.13;;;;;;;;;;786356;176;916538;-73
2023/06/22 12:28:37;;;;;;;18.60;16.63;;;;;;;;;;789403;177;919104;-73
2023/06/22 12:31:02;;;;;;;17.70;15.50;;;;;;;;;;783187;176;919358;-61
2023/06/22 12:33:30;;;;;;;16.20;14.50;;;;;;;;;;783018;177;921430;-75
2023/06/22 12:35:54;;;;;;;17.07;15.27;;;;;;;;;;786873;177;990775;-60
2023/06/22 12:38:20;;;;;;;15.70;14.03;;;;;;;;;;793309;177;812612;-73
2023/06/22 12:40:47;;;;;;;16.97;14.53;;;;;;;;;;783045;177;944724;-59
2023/06/22 12:43:12;;;;;;;20.73;15.83;;;;;;;;;;784541;177;908774;-60
2023/06/22 12:45:38;;;;;;;19.23;16.67;;;;;;;;;;791366;177;921752;-59
2023/06/22 12:48:04;;;;;;;16.47;14.83;;;;;;;;;;787541;176;820298;-72
2023/06/22 12:50:30;;;;;;;17.00;15.20;;;;;;;;;;787736;177;919549;-74
2023/06/22 12:52:55;;;;;;;19.40;16.20;;;;;;;;;;793050;176;894222;-73
2023/06/22 12:55:21;;;;;;;16.17;14.57;;;;;;;;;;784255;176;916574;-73
2023/06/22 12:57:47;;;;;;;18.60;15.57;;;;;;;;;;784954;177;919655;-73
2023/06/22 13:00:13;;;;;;;17.63;15.97;;;;;;;;;;784757;176;932853;-72
2023/06/22 13:02:39;;;;;;;18.27;16.47;;;;;;;;;;791731;175;852160;-60
2023/06/22 13:05:05;;;;;;;16.27;14.77;;;;;;;;;;783540;176;919330;-60
2023/06/22 13:07:31;;;;;;;18.17;16.40;;;;;;;;;;785989;176;914779;-60
2023/06/22 13:09:57;;;;;;;16.27;14.57;;;;;;;;;;790443;176;926304;-59
2023/06/22 13:12:23;;;;;;;18.13;16.10;;;;;;;;;;781171;176;872020;-60
2023/06/22 13:14:49;;;;;;;19.77;16.60;;;;;;;;;;783934;177;974494;-61
2023/06/22 13:17:15;;;;;;;17.30;15.43;;;;;;;;;;791176;177;868343;-72
2023/06/22 13:19:40;;;;;;;16.50;14.90;;;;;;;;;;786011;177;927655;-74
2023/06/22 13:22:07;;;;;;;17.70;16.10;;;;;;;;;;785368;177;929104;-63
2023/06/22 13:24:32;;;;;;;18.10;15.50;;;;;;;;;;783276;176;913471;-71
2023/06/22 13:26:58;;;;;;;16.70;15.10;;;;;;;;;;777479;178;919657;-71
2023/06/22 13:29:24;;;;;;;17.10;15.27;;;;;;;;;;784463;177;915282;-60
2023/06/22 13:31:50;;;;;;;16.50;14.80;;;;;;;;;;784034;177;953368;-72
2023/06/22 13:34:16;;;;;;;18.00;16.10;;;;;;;;;;790721;177;920749;-60
2023/06/22 13:36:42;;;;;;;17.70;15.83;;;;;;;;;;782903;177;948407;-70
2023/06/22 13:39:10;;;;;;;17.23;15.63;;;;;;;;;;783232;177;921932;-71
2023/06/22 13:41:37;;;;;;;16.33;14.80;;;;;;;;;;790186;177;917956;-71
2023/06/22 13:44:04;;;;;;;15.57;14.00;;;;;;;;;;784552;176;910959;-59
2023/06/22 13:46:32;;;;;;;17.40;14.57;;;;;;;;;;785060;176;920668;-59
2023/06/22 13:48:58;;;;;;;21.77;15.50;;;;;;;;;;783976;176;915498;-59
2023/06/22 13:51:24;;;;;;;18.23;14.77;;;;;;;;;;790280;175;920223;-72
2023/06/22 13:53:50;;;;;;;17.90;14.90;;;;;;;;;;785443;177;917485;-58
2023/06/22 13:56:15;;;;;;;15.97;14.47;;;;;;;;;;784857;177;717648;-60
2023/06/22 13:58:42;;;;;;;17.80;16.10;;;;;;;;;;785901;177;918633;-72
2023/06/22 14:01:07;;;;;;;16.90;15.20;;;;;;;;;;787507;177;918844;-72
2023/06/22 14:03:33;;;;;;;17.20;15.33;;;;;;;;;;785546;176;918498;-73